Time;durP1;ratioP1;P1;durP2;ratioP2;P2;SDS_P1;SDS_P2;PMS_P1;PMS_P2;Temp;Humidity;BMP_temperature;BMP_pressure;BME280_temperature;BME280_humidity;BME280_pressure;Samples;Min_cycle;Max_cycle;Signal;HPM_P1;HPM_P2
2023/01/02 00:01:30;;;;;;;11.50;3.67;;;11.80;99.90;;;;;;5013668;28;20049;-32
2023/01/02 00:03:56;;;;;;;10.77;4.25;;;11.80;99.90;;;;;;5013100;28;20021;-33
2023/01/02 00:06:23;;;;;;;6.20;3.83;;;11.80;99.90;;;;;;5012981;28;20378;-34
2023/01/02 00:08:49;;;;;;;6.93;3.83;;;11.80;99.90;;;;;;5015031;28;20050;-36
2023/01/02 00:11:15;;;;;;;10.27;3.78;;;11.90;99.90;;;;;;5034518;28;20557;-33
2023/01/02 00:13:40;;;;;;;8.32;3.63;;;11.80;99.90;;;;;;5013441;28;20108;-37
2023/01/02 00:16:06;;;;;;;12.02;3.85;;;11.90;99.90;;;;;;5014554;28;20471;-35
2023/01/02 00:18:32;;;;;;;17.63;5.07;;;11.90;99.90;;;;;;5014437;28;20026;-37
2023/01/02 00:21:02;;;;;;;14.95;4.15;;;11.90;99.90;;;;;;5014356;28;20035;-42
2023/01/02 00:23:28;;;;;;;11.30;4.20;;;11.90;99.90;;;;;;5014150;28;20463;-36
2023/01/02 00:25:53;;;;;;;15.38;4.70;;;11.90;99.90;;;;;;5003711;28;20025;-34
2023/01/02 00:28:19;;;;;;;15.05;3.60;;;11.90;99.90;;;;;;5014429;28;20153;-36
2023/01/02 00:30:45;;;;;;;5.28;3.58;;;11.80;99.90;;;;;;5014348;28;20034;-42
2023/01/02 00:33:10;;;;;;;12.45;4.22;;;11.90;99.90;;;;;;5014083;28;20502;-42
2023/01/02 00:35:36;;;;;;;8.13;4.00;;;11.90;99.90;;;;;;5014155;28;20030;-37
2023/01/02 00:38:02;;;;;;;7.88;4.25;;;11.90;99.90;;;;;;5012575;28;20026;-34
2023/01/02 00:40:28;;;;;;;11.38;4.13;;;11.90;99.90;;;;;;5010843;28;20079;-40
2023/01/02 00:42:54;;;;;;;13.48;3.80;;;11.90;99.90;;;;;;5008929;28;20715;-33
2023/01/02 00:45:19;;;;;;;14.45;3.70;;;11.90;99.90;;;;;;5012749;28;20018;-39
2023/01/02 00:47:45;;;;;;;8.70;3.85;;;11.90;99.90;;;;;;5013995;28;20496;-36
2023/01/02 00:50:10;;;;;;;4.60;3.13;;;11.90;99.90;;;;;;5013940;28;20101;-32
2023/01/02 00:52:54;;;;;;;8.63;3.78;;;12.00;99.90;;;;;;5013980;28;20402;-37
2023/01/02 00:55:20;;;;;;;11.55;3.53;;;11.90;99.90;;;;;;5013763;28;20477;-33
2023/01/02 00:57:46;;;;;;;9.30;4.20;;;11.90;99.90;;;;;;5013833;28;20080;-37
2023/01/02 01:00:12;;;;;;;10.00;4.88;;;12.00;99.90;;;;;;5013613;28;20034;-37
2023/01/02 01:02:37;;;;;;;11.30;4.40;;;11.90;99.90;;;;;;5015092;28;20029;-34
2023/01/02 01:05:03;;;;;;;10.88;4.00;;;12.00;99.90;;;;;;5018358;28;20026;-35
2023/01/02 01:07:29;;;;;;;9.25;3.28;;;12.00;99.90;;;;;;5013980;28;20470;-39
2023/01/02 01:09:55;;;;;;;7.43;3.45;;;12.00;99.90;;;;;;5003654;28;20022;-35
2023/01/02 01:12:20;;;;;;;9.32;3.67;;;12.10;99.90;;;;;;5010300;28;20398;-33
2023/01/02 01:14:46;;;;;;;11.90;4.57;;;12.10;99.90;;;;;;5013582;28;20493;-35
2023/01/02 01:17:11;;;;;;;6.97;3.80;;;12.10;99.90;;;;;;5013173;28;20097;-36
2023/01/02 01:19:37;;;;;;;12.60;4.18;;;12.10;99.90;;;;;;5011728;28;20045;-34
2023/01/02 01:22:03;;;;;;;7.85;3.45;;;12.10;99.90;;;;;;5013447;28;20026;-40
2023/01/02 01:24:28;;;;;;;11.77;4.68;;;12.10;99.90;;;;;;5013524;28;20056;-41
2023/01/02 01:26:54;;;;;;;10.18;3.80;;;12.10;99.90;;;;;;5013472;28;20497;-35
2023/01/02 01:29:20;;;;;;;11.77;4.63;;;12.00;99.90;;;;;;5013016;28;20030;-33
2023/01/02 01:31:45;;;;;;;9.52;3.63;;;12.10;99.90;;;;;;5013287;28;20028;-44
2023/01/02 01:34:11;;;;;;;10.55;3.72;;;12.10;99.90;;;;;;5013105;28;20026;-41
2023/01/02 01:36:37;;;;;;;7.40;4.15;;;12.10;99.90;;;;;;5013284;28;20497;-41
2023/01/02 01:39:03;;;;;;;8.00;4.05;;;12.10;99.90;;;;;;5013227;28;20022;-41
2023/01/02 01:41:28;;;;;;;8.88;3.58;;;12.10;99.90;;;;;;5013425;28;20026;-40
2023/01/02 01:44:00;;;;;;;9.10;3.95;;;12.20;99.90;;;;;;5013179;28;20052;-57
2023/01/02 01:46:34;;;;;;;11.43;4.05;;;12.10;99.90;;;;;;5011134;28;20054;-56
2023/01/02 01:49:09;;;;;;;16.13;4.22;;;12.20;99.90;;;;;;5010086;28;20022;-46
2023/01/02 01:51:40;;;;;;;13.07;3.85;;;12.10;99.90;;;;;;5002799;28;20073;-46
2023/01/02 01:54:09;;;;;;;10.50;3.67;;;12.10;99.90;;;;;;5010965;28;20532;-44
2023/01/02 01:56:39;;;;;;;7.65;3.03;;;12.10;99.90;;;;;;5011437;28;20532;-43
2023/01/02 01:59:08;;;;;;;9.18;4.15;;;12.10;99.90;;;;;;5012850;28;20466;-41
2023/01/02 02:01:34;;;;;;;13.40;3.92;;;12.10;99.90;;;;;;5011837;28;20490;-40
2023/01/02 02:03:59;;;;;;;12.05;3.80;;;12.20;99.90;;;;;;4992196;28;20066;-39
2023/01/02 02:06:25;;;;;;;8.18;3.60;;;12.10;99.90;;;;;;4993470;28;20019;-40
2023/01/02 02:09:00;;;;;;;5.75;3.33;;;12.10;99.90;;;;;;5010270;28;20026;-42
2023/01/02 02:11:26;;;;;;;17.67;4.35;;;12.10;99.90;;;;;;5013132;28;20021;-42
2023/01/02 02:13:59;;;;;;;5.28;3.28;;;12.20;99.90;;;;;;5011607;28;20022;-41
2023/01/02 02:16:36;;;;;;;11.48;3.65;;;12.20;99.90;;;;;;5013071;28;20489;-43
2023/01/02 02:19:39;;;;;;;15.13;4.25;;;12.20;99.90;;;;;;5012640;28;20038;-40
2023/01/02 02:22:31;;;;;;;4.88;2.95;;;12.30;99.90;;;;;;4993234;28;20034;-41
2023/01/02 02:25:02;;;;;;;10.60;3.67;;;12.30;99.90;;;;;;4999630;28;20022;-42
2023/01/02 02:28:19;;;;;;;12.43;3.60;;;12.30;99.90;;;;;;5012497;28;20101;-41
2023/01/02 02:31:03;;;;;;;17.40;4.03;;;12.30;99.90;;;;;;5000834;28;20486;-38
2023/01/02 02:33:43;;;;;;;8.40;3.88;;;12.30;99.90;;;;;;5012213;28;20482;-42
2023/01/02 02:36:39;;;;;;;8.77;3.60;;;12.30;99.90;;;;;;5012162;28;20040;-41
2023/01/02 02:39:22;;;;;;;11.93;3.50;;;12.20;99.90;;;;;;5012808;28;20018;-42
2023/01/02 02:42:13;;;;;;;5.78;3.20;;;12.20;99.90;;;;;;5012415;28;20029;-43
2023/01/02 02:44:57;;;;;;;6.82;4.13;;;12.10;99.90;;;;;;5011998;28;20080;-42
2023/01/02 02:47:35;;;;;;;8.02;4.05;;;12.20;99.90;;;;;;5014661;28;20100;-41
2023/01/02 02:50:15;;;;;;;6.85;3.22;;;12.20;99.90;;;;;;5015711;28;20061;-39
2023/01/02 02:52:58;;;;;;;12.45;4.70;;;12.20;99.90;;;;;;5015627;28;20036;-42
2023/01/02 02:55:42;;;;;;;8.63;3.58;;;12.20;99.90;;;;;;5015646;28;20030;-42
2023/01/02 02:58:08;;;;;;;7.72;3.75;;;12.20;99.90;;;;;;4996648;28;20050;-41
2023/01/02 03:00:34;;;;;;;9.05;3.53;;;12.20;99.90;;;;;;5013939;28;20121;-43
2023/01/02 03:02:59;;;;;;;5.93;3.58;;;12.30;99.90;;;;;;5012315;28;20025;-43
2023/01/02 03:05:34;;;;;;;10.75;3.50;;;12.30;99.90;;;;;;5012416;28;20690;-41
2023/01/02 03:08:22;;;;;;;7.15;3.58;;;12.30;99.90;;;;;;5014658;28;20030;-40
2023/01/02 03:10:56;;;;;;;8.00;3.28;;;12.30;99.90;;;;;;5015005;28;20092;-45
2023/01/02 03:13:41;;;;;;;9.80;4.03;;;12.40;99.90;;;;;;5014304;28;20336;-44
2023/01/02 03:16:27;;;;;;;9.30;3.22;;;12.40;99.90;;;;;;5010713;28;20065;-40
2023/01/02 03:19:01;;;;;;;9.73;4.38;;;12.40;99.90;;;;;;5009028;28;20400;-76
2023/01/02 03:21:38;;;;;;;8.15;2.83;;;12.40;99.90;;;;;;5004935;28;20026;-74
2023/01/02 03:24:11;;;;;;;10.07;3.63;;;12.40;99.90;;;;;;5013175;28;20058;-41
2023/01/02 03:26:45;;;;;;;5.20;3.20;;;12.40;99.90;;;;;;5015089;28;20022;-40
2023/01/02 03:29:23;;;;;;;6.70;3.55;;;12.40;99.90;;;;;;5015695;28;20029;-40
2023/01/02 03:31:52;;;;;;;9.80;3.67;;;12.50;99.90;;;;;;5015684;28;20027;-40
2023/01/02 03:34:26;;;;;;;8.70;3.13;;;12.60;99.90;;;;;;5006923;28;20030;-39
2023/01/02 03:37:01;;;;;;;13.63;3.22;;;12.60;99.90;;;;;;5014937;28;20034;-41
2023/01/02 03:39:33;;;;;;;7.68;3.72;;;12.60;99.90;;;;;;5014321;28;20482;-34
2023/01/02 03:42:19;;;;;;;8.57;3.10;;;12.60;99.90;;;;;;5015227;28;20474;-39
2023/01/02 03:44:57;;;;;;;7.38;2.95;;;12.60;99.90;;;;;;5014704;28;20037;-33
2023/01/02 03:48:07;;;;;;;9.85;4.38;;;12.50;99.90;;;;;;5015530;28;20470;-39
2023/01/02 03:50:39;;;;;;;11.88;3.55;;;12.60;99.90;;;;;;5014925;28;20109;-32
2023/01/02 03:53:06;;;;;;;6.82;2.85;;;12.60;99.90;;;;;;5014409;28;20029;-34
2023/01/02 03:55:35;;;;;;;8.98;3.65;;;12.60;99.90;;;;;;5015081;28;20385;-37
2023/01/02 03:58:15;;;;;;;10.93;4.00;;;12.60;99.90;;;;;;5012664;28;20022;-34
2023/01/02 04:00:55;;;;;;;7.57;3.13;;;12.60;99.90;;;;;;5015163;28;20022;-36
2023/01/02 04:03:29;;;;;;;6.43;2.90;;;12.70;99.90;;;;;;5014948;28;20542;-39
2023/01/02 04:06:12;;;;;;;11.10;3.40;;;12.70;99.90;;;;;;5014388;28;20073;-34
2023/01/02 04:08:49;;;;;;;8.55;2.90;;;12.70;99.90;;;;;;4995319;28;20027;-34
2023/01/02 04:11:18;;;;;;;9.10;2.83;;;12.70;99.90;;;;;;4995457;28;20556;-34
2023/01/02 04:13:55;;;;;;;12.10;3.20;;;12.70;99.90;;;;;;4995053;28;20038;-35
2023/01/02 04:16:24;;;;;;;6.18;2.70;;;12.70;99.90;;;;;;4996807;28;20075;-37
2023/01/02 04:19:27;;;;;;;12.23;3.30;;;12.70;99.90;;;;;;5013191;28;20081;-35
2023/01/02 04:21:57;;;;;;;9.35;3.05;;;12.70;99.90;;;;;;5012425;28;20085;-38
2023/01/02 04:24:36;;;;;;;9.50;3.58;;;12.70;99.90;;;;;;5011343;28;20474;-34
2023/01/02 04:27:11;;;;;;;5.05;2.38;;;12.70;99.90;;;;;;5013627;28;20033;-34
2023/01/02 04:29:37;;;;;;;7.93;2.33;;;12.80;99.90;;;;;;5013524;28;20545;-31
2023/01/02 04:32:28;;;;;;;9.40;3.08;;;12.80;99.90;;;;;;5013657;28;20030;-34
2023/01/02 04:34:55;;;;;;;10.52;3.60;;;12.80;99.90;;;;;;5014630;28;20478;-39
2023/01/02 04:37:33;;;;;;;9.13;3.03;;;12.80;99.90;;;;;;5013553;28;20437;-37
2023/01/02 04:40:07;;;;;;;9.77;2.70;;;12.70;99.90;;;;;;5014020;28;20089;-33
2023/01/02 04:42:32;;;;;;;8.82;3.58;;;12.70;99.90;;;;;;5013676;28;20030;-39
2023/01/02 04:44:58;;;;;;;6.05;2.95;;;12.70;99.90;;;;;;5013570;28;20068;-42
2023/01/02 04:47:23;;;;;;;7.43;2.85;;;12.70;99.90;;;;;;5014203;28;20030;-41
2023/01/02 04:49:49;;;;;;;7.20;3.10;;;12.60;99.90;;;;;;5014124;28;20030;-42
2023/01/02 04:52:15;;;;;;;9.93;3.20;;;12.70;99.90;;;;;;5013233;28;20493;-58
2023/01/02 04:54:40;;;;;;;5.43;3.35;;;12.70;99.90;;;;;;5012353;28;20060;-35
2023/01/02 04:57:06;;;;;;;9.82;3.80;;;12.70;99.90;;;;;;5014029;28;20452;-36
2023/01/02 04:59:31;;;;;;;5.75;2.95;;;12.60;99.90;;;;;;5013717;28;20041;-36
2023/01/02 05:01:57;;;;;;;15.48;4.05;;;12.60;99.90;;;;;;5010563;28;20465;-35
2023/01/02 05:04:22;;;;;;;10.35;3.45;;;12.60;99.90;;;;;;4996914;28;20065;-33
2023/01/02 05:06:48;;;;;;;10.93;4.20;;;12.60;99.90;;;;;;4997128;28;20488;-38
2023/01/02 05:09:14;;;;;;;5.45;2.78;;;12.60;99.90;;;;;;5013466;28;20036;-38
2023/01/02 05:11:40;;;;;;;9.48;2.88;;;12.60;99.90;;;;;;5013873;28;20056;-34
2023/01/02 05:14:06;;;;;;;10.63;3.40;;;12.70;99.90;;;;;;5013404;28;20526;-38
2023/01/02 05:16:31;;;;;;;7.38;3.05;;;12.70;99.90;;;;;;5013143;28;20109;-36
2023/01/02 05:18:57;;;;;;;7.95;3.20;;;12.70;99.90;;;;;;5013369;28;20496;-31
2023/01/02 05:24:07;;;;;;;6.80;3.40;;;12.70;99.90;;;;;;5013364;28;20561;-40
2023/01/02 05:26:32;;;;;;;6.10;3.47;;;12.70;99.90;;;;;;5008272;28;20105;-38
2023/01/02 05:28:59;;;;;;;10.27;3.88;;;12.60;99.90;;;;;;5007685;28;20497;-39
2023/01/02 05:31:26;;;;;;;5.10;2.47;;;12.60;99.90;;;;;;5008374;28;20129;-47
2023/01/02 05:33:56;;;;;;;9.85;2.70;;;12.30;99.90;;;;;;5013192;28;20061;-34
2023/01/02 05:36:24;;;;;;;3.55;2.10;;;11.80;99.90;;;;;;5012886;28;20508;-41
2023/01/02 05:38:51;;;;;;;1.77;1.50;;;11.60;99.90;;;;;;5013274;28;20025;-33
2023/01/02 05:41:21;;;;;;;2.22;2.05;;;11.30;99.90;;;;;;5013039;28;20540;-39
2023/01/02 05:43:47;;;;;;;1.85;1.58;;;11.20;99.90;;;;;;5012883;28;20475;-34
2023/01/02 05:46:15;;;;;;;2.08;1.58;;;11.00;99.90;;;;;;5013122;28;20033;-40
2023/01/02 05:48:42;;;;;;;1.70;1.60;;;10.90;99.90;;;;;;5013002;28;20037;-38
2023/01/02 05:51:09;;;;;;;1.90;1.80;;;10.80;99.90;;;;;;5011087;28;20069;-33
2023/01/02 05:53:36;;;;;;;1.88;1.70;;;10.70;99.90;;;;;;5013086;28;20026;-38
2023/01/02 05:56:08;;;;;;;3.03;1.83;;;10.70;99.90;;;;;;5013072;28;20049;-35
2023/01/02 05:58:36;;;;;;;2.25;1.70;;;10.70;99.90;;;;;;5007279;28;20102;-37
2023/01/02 06:01:03;;;;;;;3.05;2.00;;;10.60;99.90;;;;;;5010946;28;20033;-36
2023/01/02 06:03:29;;;;;;;2.40;2.20;;;10.50;99.90;;;;;;5010372;28;20061;-36
2023/01/02 06:05:55;;;;;;;1.70;1.60;;;10.40;99.90;;;;;;5008283;28;20038;-35
2023/01/02 06:08:20;;;;;;;2.13;1.92;;;10.30;99.90;;;;;;5009244;28;20022;-37
2023/01/02 06:10:50;;;;;;;2.00;1.80;;;10.30;99.90;;;;;;4998313;28;20026;-33
2023/01/02 06:13:16;;;;;;;2.35;2.15;;;10.30;99.90;;;;;;5009452;28;20034;-40
2023/01/02 06:15:41;;;;;;;3.05;2.55;;;10.20;99.90;;;;;;5008423;28;20032;-40
2023/01/02 06:18:07;;;;;;;4.18;2.60;;;10.20;99.90;;;;;;5007431;28;20121;-41
2023/01/02 06:20:32;;;;;;;3.10;2.42;;;10.20;99.90;;;;;;5012277;28;20613;-39
2023/01/02 06:22:58;;;;;;;6.90;2.25;;;10.10;99.90;;;;;;5015658;28;20026;-39
2023/01/02 06:25:24;;;;;;;4.63;2.30;;;10.10;99.90;;;;;;5016824;28;20057;-39
2023/01/02 06:27:52;;;;;;;2.13;1.92;;;10.00;99.90;;;;;;5016633;28;20464;-40
2023/01/02 06:30:18;;;;;;;2.45;1.60;;;10.10;99.90;;;;;;5015463;28;20500;-44
2023/01/02 06:32:43;;;;;;;2.67;2.17;;;10.00;99.90;;;;;;5015577;28;20054;-43
2023/01/02 06:35:09;;;;;;;3.70;2.40;;;10.00;99.90;;;;;;5016682;28;20552;-41
2023/01/02 06:37:35;;;;;;;4.00;1.70;;;9.90;99.90;;;;;;5016674;28;20034;-44
2023/01/02 06:40:00;;;;;;;4.50;1.92;;;10.00;99.90;;;;;;5015316;28;20045;-40
2023/01/02 06:42:26;;;;;;;2.63;1.67;;;10.00;99.90;;;;;;5016385;28;20026;-39
2023/01/02 06:44:51;;;;;;;4.53;2.10;;;10.10;99.90;;;;;;5015278;28;20037;-39
2023/01/02 06:47:17;;;;;;;4.63;1.92;;;10.10;99.90;;;;;;5016478;28;20045;-39
2023/01/02 06:49:43;;;;;;;5.38;2.35;;;10.10;99.90;;;;;;5016445;28;20033;-38
2023/01/02 06:52:08;;;;;;;5.65;1.80;;;10.10;99.90;;;;;;5016360;28;20053;-38
2023/01/02 06:54:34;;;;;;;4.45;1.42;;;10.10;99.90;;;;;;5016326;28;20430;-39
2023/01/02 06:56:59;;;;;;;4.07;1.67;;;9.90;99.90;;;;;;5016312;28;20125;-39
2023/01/02 06:59:25;;;;;;;6.28;1.98;;;9.90;99.90;;;;;;5016373;28;20504;-39
2023/01/02 07:01:51;;;;;;;7.18;1.70;;;9.90;99.90;;;;;;5016234;28;20033;-38
2023/01/02 07:04:16;;;;;;;6.35;2.75;;;10.00;99.90;;;;;;5016126;28;20022;-43
2023/01/02 07:06:42;;;;;;;4.68;1.95;;;10.00;99.90;;;;;;5016145;28;20021;-43
2023/01/02 07:09:08;;;;;;;5.78;1.80;;;9.90;99.90;;;;;;5016025;28;20065;-40
2023/01/02 07:11:34;;;;;;;6.75;2.85;;;9.90;99.90;;;;;;5016212;28;20030;-43
2023/01/02 07:14:00;;;;;;;8.75;2.05;;;10.00;99.90;;;;;;5016079;28;20110;-50
2023/01/02 07:16:26;;;;;;;7.22;2.63;;;10.00;99.90;;;;;;5015935;28;20057;-42
2023/01/02 07:18:52;;;;;;;7.43;2.30;;;9.90;99.90;;;;;;5015748;28;20041;-42
2023/01/02 07:21:19;;;;;;;4.78;2.20;;;9.90;99.90;;;;;;5015874;28;20464;-42
2023/01/02 07:23:45;;;;;;;5.50;2.90;;;10.00;99.90;;;;;;5015835;28;20026;-42
2023/01/02 07:26:11;;;;;;;3.95;2.10;;;9.90;99.90;;;;;;5016060;28;20450;-42
2023/01/02 07:28:38;;;;;;;4.57;1.80;;;10.00;99.90;;;;;;5015728;28;20029;-40
2023/01/02 07:31:06;;;;;;;5.15;1.65;;;10.00;99.90;;;;;;5015695;28;20049;-41
2023/01/02 07:33:31;;;;;;;;;;;9.80;99.90;;;;;;5015954;28;20087;-42
2023/01/02 07:35:58;;;;;;;2.72;0.95;;;9.80;99.90;;;;;;5015517;28;20284;-41
2023/01/02 07:38:25;;;;;;;3.80;1.20;;;9.80;99.90;;;;;;5015519;28;20037;-42
2023/01/02 07:40:50;;;;;;;5.88;1.75;;;9.80;99.90;;;;;;5015156;28;20026;-31
2023/01/02 07:43:16;;;;;;;3.10;1.40;;;9.80;99.90;;;;;;5015314;28;20018;-36
2023/01/02 07:45:41;;;;;;;2.75;1.20;;;9.80;99.90;;;;;;5015329;28;20022;-38
2023/01/02 07:48:07;;;;;;;2.25;1.42;;;9.80;99.90;;;;;;5015236;28;20394;-31
2023/01/02 07:50:33;;;;;;;2.58;1.50;;;9.80;99.90;;;;;;5013934;28;20478;-32
2023/01/02 07:52:58;;;;;;;7.90;1.95;;;9.90;99.90;;;;;;5015147;28;20065;-35
2023/01/02 07:55:24;;;;;;;4.03;1.70;;;9.90;99.90;;;;;;5015067;28;20060;-30
2023/01/02 07:57:49;;;;;;;9.95;2.72;;;9.80;99.90;;;;;;5015103;28;20041;-34
2023/01/02 08:00:17;;;;;;;5.45;2.15;;;9.80;99.90;;;;;;5014866;28;20029;-36
2023/01/02 08:02:42;;;;;;;9.15;2.17;;;9.80;99.90;;;;;;5015294;28;20544;-33
2023/01/02 08:05:09;;;;;;;4.88;2.05;;;9.80;99.90;;;;;;5015114;28;20049;-35
2023/01/02 08:07:34;;;;;;;10.50;2.40;;;9.80;99.90;;;;;;5014874;28;20030;-34
2023/01/02 08:10:00;;;;;;;3.85;1.92;;;9.80;99.90;;;;;;5014830;28;20037;-33
2023/01/02 08:12:26;;;;;;;6.05;2.13;;;9.90;99.90;;;;;;5014700;28;20034;-33
2023/01/02 08:14:52;;;;;;;6.63;1.90;;;9.90;99.90;;;;;;5014728;28;20486;-31
2023/01/02 08:17:18;;;;;;;3.72;1.92;;;9.90;99.90;;;;;;5015005;28;20128;-40
2023/01/02 08:19:43;;;;;;;3.50;2.25;;;9.90;99.90;;;;;;5014570;28;20045;-42
2023/01/02 08:22:09;;;;;;;14.07;2.50;;;9.90;99.90;;;;;;5014718;28;20037;-41
2023/01/02 08:24:35;;;;;;;7.80;2.25;;;10.00;99.90;;;;;;5014804;28;20026;-44
2023/01/02 08:27:00;;;;;;;5.65;2.55;;;10.00;99.90;;;;;;5014687;28;20026;-40
2023/01/02 08:29:26;;;;;;;5.05;2.33;;;10.10;99.90;;;;;;5014677;28;20030;-42
2023/01/02 08:31:51;;;;;;;3.25;2.13;;;10.10;99.90;;;;;;5014626;28;20022;-41
2023/01/02 08:34:17;;;;;;;8.95;2.85;;;10.10;99.90;;;;;;5014461;28;20033;-41
2023/01/02 08:36:44;;;;;;;11.55;3.03;;;10.10;99.90;;;;;;5014510;28;20474;-43
2023/01/02 08:39:10;;;;;;;5.20;3.05;;;10.00;99.90;;;;;;5014343;28;20505;-61
2023/01/02 08:41:37;;;;;;;3.35;2.17;;;10.00;99.90;;;;;;5014431;28;20029;-39
2023/01/02 08:44:03;;;;;;;8.77;2.67;;;10.00;99.90;;;;;;5013962;28;20034;-41
2023/01/02 08:46:34;;;;;;;7.63;3.80;;;10.00;99.90;;;;;;5014172;28;20034;-41
2023/01/02 08:49:00;;;;;;;5.13;3.10;;;10.00;99.90;;;;;;5014207;28;20485;-37
2023/01/02 08:51:26;;;;;;;6.65;2.50;;;9.90;99.90;;;;;;5014026;28;20030;-33
2023/01/02 08:53:52;;;;;;;9.27;3.45;;;9.90;99.90;;;;;;5014072;28;20136;-35
2023/01/02 08:56:27;;;;;;;5.40;3.22;;;9.90;99.90;;;;;;5013997;28;20038;-34
2023/01/02 08:58:57;;;;;;;4.28;2.92;;;10.00;99.90;;;;;;5013913;28;20026;-38
2023/01/02 09:01:24;;;;;;;7.60;3.40;;;10.00;99.90;;;;;;5013841;28;20037;-37
2023/01/02 09:03:51;;;;;;;9.83;3.47;;;9.90;99.90;;;;;;5013884;28;20034;-35
2023/01/02 09:06:17;;;;;;;11.65;3.78;;;9.90;99.90;;;;;;5012444;28;20037;-34
2023/01/02 09:08:43;;;;;;;5.60;3.30;;;10.00;99.90;;;;;;5013811;28;20018;-34
2023/01/02 09:11:12;;;;;;;5.28;3.35;;;9.90;99.90;;;;;;5013760;28;20030;-35
2023/01/02 09:13:38;;;;;;;8.32;3.35;;;10.00;99.90;;;;;;5013595;28;20478;-39
2023/01/02 09:16:04;;;;;;;10.52;3.72;;;10.10;99.90;;;;;;5013665;28;20030;-34
2023/01/02 09:18:29;;;;;;;6.53;4.00;;;10.10;99.90;;;;;;5013682;28;20470;-33
2023/01/02 09:20:55;;;;;;;9.88;3.47;;;10.10;99.90;;;;;;4995998;28;20124;-32
2023/01/02 09:23:20;;;;;;;4.40;3.10;;;10.10;99.90;;;;;;5013482;28;20117;-42
2023/01/02 09:25:46;;;;;;;5.03;2.72;;;10.10;99.90;;;;;;5013509;28;20030;-39
2023/01/02 09:28:12;;;;;;;7.28;2.70;;;10.20;99.90;;;;;;5013519;28;20386;-36
2023/01/02 09:30:37;;;;;;;8.02;2.85;;;10.20;99.90;;;;;;5013769;28;20087;-37
2023/01/02 09:33:03;;;;;;;6.55;2.55;;;10.20;99.90;;;;;;5013471;28;20030;-34
2023/01/02 09:35:28;;;;;;;6.03;1.52;;;10.30;99.90;;;;;;5013433;28;20026;-35
2023/01/02 09:37:54;;;;;;;5.78;1.83;;;10.30;99.90;;;;;;5013379;28;20026;-37
2023/01/02 09:40:20;;;;;;;3.50;1.65;;;10.20;99.90;;;;;;5013179;28;20034;-32
2023/01/02 09:42:49;;;;;;;2.10;1.38;;;10.10;99.90;;;;;;5013194;28;20359;-35
2023/01/02 09:45:15;;;;;;;4.53;1.83;;;10.10;99.90;;;;;;5013480;28;20544;-34
2023/01/02 09:47:44;;;;;;;2.80;1.35;;;10.10;99.90;;;;;;5013186;28;20026;-41
2023/01/02 09:50:26;;;;;;;4.68;0.85;;;10.10;99.90;;;;;;5013114;28;20034;-38
2023/01/02 09:52:58;;;;;;;3.35;1.05;;;10.10;99.90;;;;;;5013308;28;20030;-36
2023/01/02 09:55:48;;;;;;;7.22;1.30;;;10.10;99.90;;;;;;5013234;28;20478;-41
2023/01/02 09:58:35;;;;;;;2.95;0.65;;;10.00;99.90;;;;;;5012667;28;20026;-31
2023/01/02 10:01:02;;;;;;;1.73;0.75;;;10.10;99.90;;;;;;5012850;28;20042;-36
2023/01/02 10:03:34;;;;;;;3.27;1.10;;;10.10;99.90;;;;;;5013013;28;20033;-31
2023/01/02 10:06:09;;;;;;;4.63;0.70;;;10.10;99.90;;;;;;5013272;28;20120;-33
2023/01/02 10:09:04;;;;;;;1.85;0.80;;;10.10;99.90;;;;;;5012840;28;20156;-34
2023/01/02 10:11:47;;;;;;;4.90;0.70;;;10.20;99.90;;;;;;5013033;28;20030;-38
2023/01/02 10:15:01;;;;;;;3.92;0.50;;;10.10;99.90;;;;;;5012896;28;20073;-32
2023/01/02 10:17:32;;;;;;;4.10;0.95;;;10.20;99.90;;;;;;5011100;28;20069;-34
2023/01/02 10:20:14;;;;;;;5.90;0.77;;;10.30;99.90;;;;;;5012733;28;20050;-35
2023/01/02 10:22:55;;;;;;;4.85;0.40;;;10.30;99.90;;;;;;5013203;28;20494;-31
2023/01/02 10:25:29;;;;;;;7.53;0.75;;;10.30;99.90;;;;;;5012895;28;20052;-32
2023/01/02 10:28:20;;;;;;;0.45;0.43;;;10.30;99.90;;;;;;5013182;28;20028;-36
2023/01/02 10:30:58;;;;;;;4.07;0.63;;;10.40;99.90;;;;;;5012824;28;20041;-34
2023/01/02 10:33:42;;;;;;;2.88;1.02;;;10.40;99.90;;;;;;5012826;28;20033;-32
2023/01/02 10:36:21;;;;;;;6.07;1.13;;;10.40;99.90;;;;;;5012708;28;20441;-34
2023/01/02 10:38:46;;;;;;;4.63;0.90;;;10.50;99.90;;;;;;5012778;28;20069;-33
2023/01/02 10:41:12;;;;;;;7.68;1.08;;;10.40;99.90;;;;;;5012504;28;20494;-31
2023/01/02 10:43:38;;;;;;;3.67;0.77;;;10.50;99.90;;;;;;5012672;28;20076;-36
2023/01/02 10:46:04;;;;;;;5.25;1.23;;;10.50;99.90;;;;;;5012684;28;20026;-33
2023/01/02 10:48:33;;;;;;;3.38;0.70;;;10.60;99.90;;;;;;5012901;28;20475;-39
2023/01/02 10:51:02;;;;;;;3.13;0.95;;;10.60;99.90;;;;;;5012888;28;20029;-36
2023/01/02 10:53:36;;;;;;;4.68;0.70;;;10.60;99.90;;;;;;5012891;28;20030;-35
2023/01/02 10:56:06;;;;;;;2.05;0.90;;;10.60;99.90;;;;;;5012861;28;20022;-35
2023/01/02 10:58:34;;;;;;;1.67;0.80;;;10.60;99.90;;;;;;5012425;28;20030;-36
2023/01/02 11:01:06;;;;;;;5.93;1.00;;;10.60;99.90;;;;;;5012483;28;20393;-35
2023/01/02 11:03:32;;;;;;;2.95;0.70;;;10.60;99.90;;;;;;5012510;28;20033;-50
2023/01/02 11:05:59;;;;;;;5.18;0.50;;;10.70;99.90;;;;;;5012508;28;20386;-37
2023/01/02 11:08:37;;;;;;;2.42;0.70;;;10.60;99.90;;;;;;5014571;28;20317;-39
2023/01/02 11:11:22;;;;;;;4.13;0.93;;;10.60;99.90;;;;;;5015864;28;20429;-37
2023/01/02 11:13:54;;;;;;;5.85;1.98;;;10.60;99.90;;;;;;5016124;28;20437;-38
2023/01/02 11:16:25;;;;;;;7.03;0.75;;;10.60;99.90;;;;;;5016128;28;20117;-32
2023/01/02 11:18:57;;;;;;;6.93;0.50;;;10.60;99.90;;;;;;5015608;28;20046;-36
2023/01/02 11:21:32;;;;;;;6.50;1.83;;;10.60;99.90;;;;;;5015968;28;20478;-33
2023/01/02 11:24:18;;;;;;;4.03;0.82;;;10.50;99.90;;;;;;5015725;28;20030;-36
2023/01/02 11:26:49;;;;;;;1.05;0.60;;;10.60;99.90;;;;;;5015920;28;20486;-41
2023/01/02 11:29:19;;;;;;;2.17;0.60;;;10.60;99.90;;;;;;5015817;28;20466;-34
2023/01/02 11:31:50;;;;;;;3.97;0.90;;;10.70;99.90;;;;;;5015529;28;20112;-34
2023/01/02 11:34:26;;;;;;;10.00;0.60;;;10.70;99.90;;;;;;5015845;28;20025;-36
2023/01/02 11:37:02;;;;;;;6.15;1.40;;;10.80;99.90;;;;;;5015467;28;20336;-34
2023/01/02 11:39:30;;;;;;;6.53;0.85;;;10.70;99.90;;;;;;5015308;28;20390;-41
2023/01/02 11:45:14;;;;;;;19.37;2.03;;;10.80;99.90;;;;;;5015618;28;20119;-33
2023/01/02 11:48:17;;;;;;;3.42;0.70;;;10.90;99.90;;;;;;5015340;28;20331;-34
2023/01/02 11:50:43;;;;;;;4.70;0.77;;;10.90;99.90;;;;;;5003296;28;20520;-37
2023/01/02 11:53:12;;;;;;;5.72;2.35;;;10.90;99.90;;;;;;5015409;28;20028;-35
2023/01/02 11:55:58;;;;;;;12.65;1.73;;;10.90;99.90;;;;;;5015021;28;20058;-35
2023/01/02 11:58:32;;;;;;;3.42;0.80;;;10.90;99.90;;;;;;5015147;28;20101;-39
2023/01/02 12:01:07;;;;;;;5.22;1.17;;;10.90;99.90;;;;;;5015226;28;20478;-36
2023/01/02 12:03:33;;;;;;;10.23;1.13;;;10.90;99.90;;;;;;5015041;28;20445;-39
2023/01/02 12:06:23;;;;;;;4.28;1.20;;;10.90;99.90;;;;;;5015030;28;20022;-39
2023/01/02 12:09:13;;;;;;;10.80;1.23;;;10.90;99.90;;;;;;5014974;28;20048;-37
2023/01/02 12:11:42;;;;;;;5.63;2.22;;;10.90;99.90;;;;;;5014868;28;20026;-38
2023/01/02 12:14:20;;;;;;;5.45;1.10;;;10.90;99.90;;;;;;5014550;28;20525;-37
2023/01/02 12:17:03;;;;;;;7.13;1.33;;;10.90;99.90;;;;;;5014979;28;20109;-35
2023/01/02 12:19:47;;;;;;;8.05;1.23;;;10.90;99.90;;;;;;5013583;28;20046;-36
2023/01/02 12:22:21;;;;;;;5.30;1.67;;;10.90;99.90;;;;;;5014542;28;20493;-33
2023/01/02 12:25:02;;;;;;;1.83;1.00;;;10.90;99.90;;;;;;5014555;28;20075;-33
2023/01/02 12:27:34;;;;;;;5.38;1.10;;;10.90;99.90;;;;;;5013118;28;20037;-35
2023/01/02 12:30:12;;;;;;;10.32;1.10;;;10.90;99.90;;;;;;5014508;28;20030;-33
2023/01/02 12:32:53;;;;;;;1.45;0.80;;;10.90;99.90;;;;;;5014497;28;20054;-37
2023/01/02 12:35:56;;;;;;;2.65;0.82;;;10.90;99.90;;;;;;5014423;28;20026;-42
2023/01/02 12:38:50;;;;;;;6.95;1.08;;;10.90;99.90;;;;;;5013394;28;20538;-33
2023/01/02 12:41:54;;;;;;;2.42;1.10;;;10.90;99.90;;;;;;5014295;28;20038;-34
2023/01/02 12:44:31;;;;;;;2.20;1.48;;;10.90;99.90;;;;;;5006081;28;20042;-38
2023/01/02 12:47:19;;;;;;;6.68;2.33;;;11.00;99.90;;;;;;5014238;28;20060;-36
2023/01/02 12:50:03;;;;;;;10.13;1.27;;;10.90;99.90;;;;;;5014236;28;20030;-35
2023/01/02 12:52:37;;;;;;;12.10;1.90;;;11.00;99.90;;;;;;5014082;28;20375;-36
2023/01/02 12:55:27;;;;;;;9.02;1.70;;;10.90;99.90;;;;;;5014097;28;20422;-36
2023/01/02 12:58:02;;;;;;;7.25;2.08;;;10.90;99.90;;;;;;5013923;28;20022;-35
2023/01/02 13:00:48;;;;;;;5.40;1.30;;;10.90;99.90;;;;;;5013958;28;20022;-37
2023/01/02 13:03:33;;;;;;;4.05;1.50;;;10.90;99.90;;;;;;5013914;28;20100;-38
2023/01/02 13:06:10;;;;;;;8.02;1.85;;;10.90;99.90;;;;;;5014111;28;20467;-35
2023/01/02 13:08:59;;;;;;;7.70;2.28;;;10.90;99.90;;;;;;5014093;28;20018;-40
2023/01/02 13:11:44;;;;;;;6.68;2.95;;;10.80;99.90;;;;;;5013733;28;20433;-38
2023/01/02 13:14:22;;;;;;;4.07;2.33;;;10.80;99.90;;;;;;5013689;28;20394;-35